createdAt,value
2022-07-31T00:01:21.959Z,13.03
2022-07-31T00:03:48.730Z,11.50
2022-07-31T00:06:15.448Z,11.70
2022-07-31T00:08:42.142Z,12.03
2022-07-31T00:11:11.582Z,10.70
2022-07-31T00:13:57.540Z,11.40
2022-07-31T00:16:25.802Z,12.17
2022-07-31T00:18:52.560Z,11.13
2022-07-31T00:21:19.329Z,10.67
2022-07-31T00:23:46.160Z,12.00
2022-07-31T00:26:12.836Z,10.90
2022-07-31T00:28:39.491Z,10.17
2022-07-31T00:31:06.133Z,10.93
2022-07-31T00:33:32.787Z,10.00
2022-07-31T00:35:59.410Z,10.90
2022-07-31T00:38:27.776Z,10.17
2022-07-31T00:40:54.771Z,10.30
2022-07-31T00:43:21.585Z,10.87
2022-07-31T00:45:50.500Z,12.07
2022-07-31T00:48:27.507Z,11.20
2022-07-31T00:50:55.008Z,10.80
2022-07-31T00:53:21.660Z,10.43
2022-07-31T00:55:51.836Z,11.10
2022-07-31T00:58:19.886Z,12.67
2022-07-31T01:00:47.967Z,11.87
2022-07-31T01:03:14.723Z,12.40
2022-07-31T01:05:41.851Z,12.27
2022-07-31T01:08:08.690Z,12.43
2022-07-31T01:11:01.895Z,12.30
2022-07-31T01:13:39.324Z,12.67
2022-07-31T01:16:09.525Z,12.90
2022-07-31T01:18:39.010Z,10.13
2022-07-31T01:21:11.847Z,10.77
2022-07-31T01:23:58.888Z,11.83
2022-07-31T01:26:56.814Z,11.77
2022-07-31T01:29:37.420Z,11.67
2022-07-31T01:32:10.522Z,10.23
2022-07-31T01:34:49.501Z,12.13
2022-07-31T01:37:24.083Z,12.37
2022-07-31T01:40:00.887Z,11.33
2022-07-31T01:42:29.002Z,10.23
2022-07-31T01:44:59.938Z,11.47
2022-07-31T01:47:27.951Z,10.23
2022-07-31T01:49:58.443Z,11.50
2022-07-31T01:52:29.380Z,11.27
2022-07-31T01:54:58.598Z,10.70
2022-07-31T01:57:27.045Z,10.10
2022-07-31T01:59:58.854Z,11.10
2022-07-31T02:02:27.053Z,11.33
2022-07-31T02:04:55.439Z,11.07
2022-07-31T02:07:23.253Z,11.37
2022-07-31T02:09:58.678Z,11.57
2022-07-31T02:12:31.907Z,13.13
2022-07-31T02:15:01.937Z,11.93
2022-07-31T02:17:29.104Z,13.07
2022-07-31T02:20:00.322Z,11.40
2022-07-31T02:22:27.529Z,11.73
2022-07-31T02:24:54.206Z,11.47
2022-07-31T02:27:57.320Z,12.57
2022-07-31T02:30:11.080Z,11.27
2022-07-31T02:32:38.458Z,10.00
2022-07-31T02:35:07.722Z,11.90
2022-07-31T02:37:37.320Z,10.77
2022-07-31T02:40:05.621Z,12.00
2022-07-31T02:42:32.582Z,11.27
2022-07-31T02:45:00.860Z,12.13
2022-07-31T02:47:28.903Z,10.17
2022-07-31T02:49:57.933Z,11.10
2022-07-31T02:52:25.393Z,10.20
2022-07-31T02:54:52.824Z,9.60
2022-07-31T02:57:19.546Z,10.53
2022-07-31T02:59:46.451Z,10.07
2022-07-31T03:02:13.223Z,9.07
2022-07-31T03:04:39.992Z,9.93
2022-07-31T03:07:06.832Z,11.00
2022-07-31T03:09:33.489Z,9.20
2022-07-31T03:12:04.081Z,9.70
2022-07-31T03:14:34.311Z,9.30
2022-07-31T03:17:01.514Z,8.97
2022-07-31T03:19:28.777Z,12.43
2022-07-31T03:21:56.307Z,11.33
2022-07-31T03:24:23.357Z,10.50
2022-07-31T03:26:50.146Z,10.00
2022-07-31T03:29:42.492Z,10.77
2022-07-31T03:32:03.652Z,10.10
2022-07-31T03:34:30.455Z,9.20
2022-07-31T03:36:57.101Z,11.30
2022-07-31T03:39:24.637Z,9.03
2022-07-31T03:41:54.215Z,9.37
2022-07-31T03:44:21.845Z,9.80
2022-07-31T03:46:48.668Z,9.33
2022-07-31T03:49:16.106Z,9.37
2022-07-31T03:51:43.510Z,9.60
2022-07-31T03:54:10.269Z,9.30
2022-07-31T03:56:38.755Z,9.90
2022-07-31T03:59:05.400Z,9.13
2022-07-31T04:01:57.437Z,9.40
2022-07-31T04:04:21.512Z,9.27
2022-07-31T04:06:48.137Z,8.93
2022-07-31T04:09:18.403Z,9.33
2022-07-31T04:11:46.358Z,8.53
2022-07-31T04:14:13.020Z,9.10
2022-07-31T04:16:39.661Z,9.50
2022-07-31T04:19:06.306Z,9.00
2022-07-31T04:21:32.942Z,8.90
2022-07-31T04:24:00.090Z,9.10
2022-07-31T04:26:28.159Z,9.37
2022-07-31T04:28:54.836Z,9.60
2022-07-31T04:31:21.510Z,8.83
2022-07-31T04:33:52.231Z,10.17
2022-07-31T04:36:30.290Z,12.60
2022-07-31T04:38:58.654Z,11.43
2022-07-31T04:41:25.418Z,11.90
2022-07-31T04:43:52.191Z,11.30
2022-07-31T04:46:19.070Z,10.80
2022-07-31T04:48:45.870Z,12.43
2022-07-31T04:51:21.492Z,13.70
2022-07-31T04:53:50.184Z,12.50
2022-07-31T04:56:47.979Z,13.63
2022-07-31T04:59:16.839Z,13.87
2022-07-31T05:01:44.894Z,15.17
2022-07-31T05:04:11.939Z,12.93
2022-07-31T05:06:45.363Z,13.20
2022-07-31T05:09:18.774Z,14.97
2022-07-31T05:11:48.135Z,13.30
2022-07-31T05:14:16.906Z,12.20
2022-07-31T05:16:44.204Z,12.27
2022-07-31T05:19:14.355Z,13.57
2022-07-31T05:21:53.179Z,13.13
2022-07-31T05:24:32.788Z,13.23
2022-07-31T05:27:01.943Z,14.40
2022-07-31T05:29:29.264Z,12.40
2022-07-31T05:32:00.626Z,12.90
2022-07-31T05:34:30.111Z,11.00
2022-07-31T05:37:03.347Z,12.80
2022-07-31T05:39:30.281Z,12.70
2022-07-31T05:41:57.351Z,12.43
2022-07-31T05:44:24.606Z,11.47
2022-07-31T05:49:17.782Z,12.77
2022-07-31T05:51:45.456Z,12.10
2022-07-31T05:54:12.132Z,12.67
2022-07-31T05:56:38.792Z,12.90
2022-07-31T05:59:05.537Z,12.87
2022-07-31T06:01:32.308Z,13.57
2022-07-31T06:03:58.964Z,12.40
2022-07-31T06:06:25.925Z,17.47
2022-07-31T06:08:52.682Z,13.60
2022-07-31T06:11:19.379Z,17.73
2022-07-31T06:13:46.025Z,14.40
2022-07-31T06:16:14.212Z,13.60
2022-07-31T06:18:42.037Z,11.77
2022-07-31T06:21:08.690Z,12.30
2022-07-31T06:23:35.344Z,9.73
2022-07-31T06:26:02.002Z,12.50
2022-07-31T06:28:43.213Z,11.90
2022-07-31T06:31:19.862Z,11.57
2022-07-31T06:33:48.335Z,10.10
2022-07-31T06:36:16.301Z,8.03
2022-07-31T06:38:42.959Z,10.90
2022-07-31T06:41:09.641Z,9.43
2022-07-31T06:43:36.369Z,8.03
2022-07-31T06:46:03.028Z,7.87
2022-07-31T06:48:30.039Z,12.77
2022-07-31T06:51:14.490Z,9.50
2022-07-31T06:53:43.322Z,7.40
2022-07-31T06:56:09.976Z,9.27
2022-07-31T06:58:36.599Z,5.93
2022-07-31T07:01:03.351Z,5.30
2022-07-31T07:03:30.007Z,4.93
2022-07-31T07:05:56.923Z,8.60
2022-07-31T07:08:23.963Z,8.40
2022-07-31T07:10:51.065Z,6.60
2022-07-31T07:13:17.686Z,8.77
2022-07-31T07:15:44.299Z,7.60
2022-07-31T07:18:11.001Z,7.00
2022-07-31T07:20:37.782Z,6.97
2022-07-31T07:23:04.502Z,9.10
2022-07-31T07:25:31.189Z,7.67
2022-07-31T07:27:57.896Z,9.30
2022-07-31T07:30:28.371Z,7.47
2022-07-31T07:32:55.362Z,9.30
2022-07-31T07:35:22.341Z,7.77
2022-07-31T07:37:49.162Z,7.87
2022-07-31T07:40:17.049Z,5.77
2022-07-31T07:42:44.099Z,6.30
2022-07-31T07:45:11.190Z,5.00
2022-07-31T07:47:53.775Z,4.37
2022-07-31T07:50:29.291Z,5.37
2022-07-31T07:52:56.634Z,6.30
2022-07-31T07:55:23.895Z,5.27
2022-07-31T07:57:50.682Z,8.97
2022-07-31T08:00:17.579Z,6.10
2022-07-31T08:03:02.679Z,6.53
2022-07-31T08:05:32.963Z,6.00
2022-07-31T08:07:59.755Z,6.47
2022-07-31T08:10:26.464Z,5.93
2022-07-31T08:12:54.733Z,5.43
2022-07-31T08:15:21.511Z,5.93
2022-07-31T08:17:48.152Z,5.43
2022-07-31T08:20:14.826Z,5.40
2022-07-31T08:22:41.670Z,7.40
2022-07-31T08:25:14.169Z,5.10
2022-07-31T08:27:41.781Z,4.37
2022-07-31T08:30:08.879Z,3.47
2022-07-31T08:32:36.058Z,4.00
2022-07-31T08:35:02.741Z,3.83
2022-07-31T08:37:51.298Z,4.60
2022-07-31T08:40:17.869Z,4.20
2022-07-31T08:42:46.232Z,3.93
2022-07-31T08:45:13.350Z,3.70
2022-07-31T08:47:46.270Z,3.90
2022-07-31T08:50:15.358Z,3.60
2022-07-31T08:52:45.487Z,3.00
2022-07-31T08:55:24.577Z,3.90
2022-07-31T08:57:59.545Z,3.67
2022-07-31T09:00:27.420Z,3.13
2022-07-31T09:02:55.053Z,3.53
2022-07-31T09:05:22.610Z,3.40
2022-07-31T09:07:49.254Z,3.30
2022-07-31T09:10:26.085Z,3.50
2022-07-31T09:12:54.415Z,5.30
2022-07-31T09:15:29.608Z,3.83
2022-07-31T09:17:56.862Z,2.90
2022-07-31T09:20:29.295Z,3.13
2022-07-31T09:23:07.574Z,4.00
2022-07-31T09:25:34.491Z,3.07
2022-07-31T09:28:07.001Z,2.90
2022-07-31T09:30:34.240Z,3.43
2022-07-31T09:33:17.582Z,4.17
2022-07-31T09:35:51.311Z,4.00
2022-07-31T09:38:18.256Z,7.57
2022-07-31T09:40:56.928Z,4.23
2022-07-31T09:43:24.756Z,4.83
2022-07-31T09:46:00.721Z,4.97
2022-07-31T09:48:28.596Z,3.10
2022-07-31T09:51:01.324Z,3.20
2022-07-31T09:53:28.081Z,3.80
2022-07-31T09:55:56.802Z,3.03
2022-07-31T09:58:24.489Z,3.00
2022-07-31T10:00:53.326Z,2.80
2022-07-31T10:03:20.747Z,3.30
2022-07-31T10:05:47.752Z,3.13
2022-07-31T10:08:14.890Z,2.90
2022-07-31T10:10:45.806Z,2.83
2022-07-31T10:13:15.450Z,2.70
2022-07-31T10:15:45.478Z,3.07
2022-07-31T10:18:12.551Z,2.73
2022-07-31T10:20:42.770Z,2.60
2022-07-31T10:23:15.415Z,3.00
2022-07-31T10:25:53.270Z,2.47
2022-07-31T10:28:21.462Z,2.47
2022-07-31T10:30:48.849Z,2.80
2022-07-31T10:33:41.998Z,2.20
2022-07-31T10:36:12.160Z,2.70
2022-07-31T10:38:50.912Z,2.73
2022-07-31T10:41:36.471Z,2.80
2022-07-31T10:44:07.940Z,2.57
2022-07-31T10:46:34.768Z,3.10
2022-07-31T10:49:08.700Z,2.30
2022-07-31T10:51:50.040Z,2.67
2022-07-31T10:54:16.856Z,2.30
2022-07-31T10:56:46.273Z,2.47
2022-07-31T10:59:13.122Z,2.57
2022-07-31T11:01:52.989Z,2.63
2022-07-31T11:04:28.560Z,2.23
2022-07-31T11:06:55.337Z,2.23
2022-07-31T11:09:26.350Z,2.40
2022-07-31T11:11:53.690Z,2.20
2022-07-31T11:14:32.358Z,2.10
2022-07-31T11:16:59.081Z,2.50
2022-07-31T11:19:25.784Z,2.33
2022-07-31T11:21:57.443Z,2.40
2022-07-31T11:24:24.314Z,2.50
2022-07-31T11:26:58.544Z,2.10
2022-07-31T11:30:01.735Z,4.17
2022-07-31T11:32:25.264Z,2.43
2022-07-31T11:34:55.015Z,2.77
2022-07-31T11:37:26.267Z,2.90
2022-07-31T11:39:59.261Z,2.13
2022-07-31T11:42:34.510Z,2.50
2022-07-31T11:45:11.330Z,2.10
2022-07-31T11:48:11.630Z,2.40
2022-07-31T11:50:43.365Z,2.17
2022-07-31T11:53:10.715Z,2.30
2022-07-31T11:55:47.838Z,3.23
2022-07-31T11:58:15.913Z,2.50
2022-07-31T12:00:50.253Z,1.70
2022-07-31T12:03:18.764Z,1.90
2022-07-31T12:05:47.524Z,2.27
2022-07-31T12:08:15.251Z,1.70
2022-07-31T12:10:42.601Z,2.10
2022-07-31T12:13:18.017Z,2.00
2022-07-31T12:16:01.348Z,2.20
2022-07-31T12:18:29.328Z,2.60
2022-07-31T12:21:01.675Z,2.57
2022-07-31T12:23:43.122Z,2.00
2022-07-31T12:26:27.668Z,2.13
2022-07-31T12:29:07.665Z,2.07
2022-07-31T12:31:54.176Z,1.70
2022-07-31T12:34:28.083Z,2.00
2022-07-31T12:36:59.551Z,2.17
2022-07-31T12:39:26.453Z,2.23
2022-07-31T12:42:22.034Z,2.60
2022-07-31T12:45:01.033Z,2.20
2022-07-31T12:47:45.636Z,2.13
2022-07-31T12:50:18.115Z,2.00
2022-07-31T12:52:45.282Z,2.20
2022-07-31T12:55:11.959Z,2.10
2022-07-31T12:57:50.330Z,2.07
2022-07-31T13:00:19.199Z,2.50
2022-07-31T13:02:46.059Z,3.00
2022-07-31T13:05:12.762Z,2.03
2022-07-31T13:07:39.500Z,1.80
2022-07-31T13:10:19.868Z,2.50
2022-07-31T13:12:52.132Z,2.10
2022-07-31T13:15:22.438Z,2.10
2022-07-31T13:17:50.699Z,1.83
2022-07-31T13:20:17.875Z,2.30
2022-07-31T13:22:44.629Z,2.30
2022-07-31T13:25:11.362Z,2.43
2022-07-31T13:27:38.053Z,2.27
2022-07-31T13:30:05.435Z,1.93
2022-07-31T13:32:32.251Z,2.70
2022-07-31T13:35:23.920Z,2.10
2022-07-31T13:37:46.604Z,2.00
2022-07-31T13:40:13.746Z,2.43
2022-07-31T13:42:40.414Z,1.80
2022-07-31T13:45:08.575Z,2.27
2022-07-31T13:47:50.757Z,3.77
2022-07-31T13:50:18.678Z,2.07
2022-07-31T13:52:45.318Z,3.03
2022-07-31T13:55:11.930Z,2.33
2022-07-31T13:57:38.600Z,2.10
2022-07-31T14:00:06.155Z,2.50
2022-07-31T14:02:32.900Z,2.07
2022-07-31T14:04:59.622Z,2.10
2022-07-31T14:07:45.391Z,3.20
2022-07-31T14:10:18.517Z,2.20
2022-07-31T14:12:47.063Z,2.17
2022-07-31T14:15:13.803Z,2.27
2022-07-31T14:17:40.503Z,2.43
2022-07-31T14:20:07.829Z,2.50
2022-07-31T14:22:34.545Z,2.50
2022-07-31T14:25:01.229Z,2.10
2022-07-31T14:27:27.904Z,3.60
2022-07-31T14:29:54.742Z,2.73
2022-07-31T14:32:22.225Z,2.40
2022-07-31T14:34:50.083Z,2.70
2022-07-31T14:37:16.815Z,2.80
2022-07-31T14:39:43.639Z,2.47
2022-07-31T14:42:11.572Z,2.80
2022-07-31T14:44:41.572Z,3.00
2022-07-31T14:47:09.335Z,3.13
2022-07-31T14:50:08.996Z,2.80
2022-07-31T14:52:22.755Z,2.90
2022-07-31T14:54:49.552Z,2.93
2022-07-31T14:57:20.174Z,3.10
2022-07-31T14:59:50.102Z,3.20
2022-07-31T15:02:21.870Z,3.03
2022-07-31T15:04:49.323Z,3.20
2022-07-31T15:10:05.249Z,3.30
2022-07-31T15:12:32.340Z,4.23
2022-07-31T15:14:59.025Z,4.00
2022-07-31T15:17:25.706Z,3.97
2022-07-31T15:19:52.408Z,4.80
2022-07-31T15:22:19.337Z,4.57
2022-07-31T15:24:48.709Z,5.93
2022-07-31T15:27:17.710Z,5.17
2022-07-31T15:30:04.146Z,5.30
2022-07-31T15:32:31.371Z,6.30
2022-07-31T15:34:58.001Z,5.87
2022-07-31T15:37:24.707Z,6.30
2022-07-31T15:40:03.099Z,6.67
2022-07-31T15:42:40.743Z,6.13
2022-07-31T15:45:11.666Z,6.00
2022-07-31T15:47:39.266Z,6.50
2022-07-31T15:50:07.651Z,5.93
2022-07-31T15:52:34.325Z,6.77
2022-07-31T15:55:01.436Z,6.47
2022-07-31T15:57:28.135Z,6.90
2022-07-31T15:59:55.215Z,7.67
2022-07-31T16:02:23.207Z,6.97
2022-07-31T16:04:53.287Z,6.43
2022-07-31T16:08:30.189Z,6.70
2022-07-31T16:10:17.668Z,6.80
2022-07-31T16:12:48.486Z,7.50
2022-07-31T16:15:16.926Z,7.40
2022-07-31T16:17:44.549Z,8.07
2022-07-31T16:20:26.184Z,8.10
2022-07-31T16:23:00.842Z,7.97
2022-07-31T16:25:28.943Z,8.27
2022-07-31T16:27:55.795Z,8.27
2022-07-31T16:30:23.229Z,10.93
2022-07-31T16:32:50.640Z,8.30
2022-07-31T16:35:17.424Z,8.67
2022-07-31T16:37:51.587Z,8.27
2022-07-31T16:40:26.868Z,8.73
2022-07-31T16:43:47.833Z,12.83
2022-07-31T16:45:54.891Z,9.33
2022-07-31T16:48:21.991Z,8.33
2022-07-31T16:50:54.125Z,7.83
2022-07-31T16:54:11.218Z,9.23
2022-07-31T16:56:12.864Z,9.60
2022-07-31T16:58:39.700Z,9.13
2022-07-31T17:01:56.999Z,9.00
2022-07-31T17:03:59.521Z,9.47
2022-07-31T17:06:36.783Z,9.77
2022-07-31T17:09:17.339Z,10.83
2022-07-31T17:11:45.885Z,9.23
2022-07-31T17:14:12.589Z,10.33
2022-07-31T17:16:42.209Z,11.43
2022-07-31T17:19:11.572Z,12.43
2022-07-31T17:21:44.613Z,12.70
2022-07-31T17:24:15.864Z,12.87
2022-07-31T17:26:43.684Z,11.37
2022-07-31T17:29:10.391Z,12.20
2022-07-31T17:31:37.018Z,12.87
2022-07-31T17:34:07.342Z,12.67
2022-07-31T17:36:36.217Z,13.93
2022-07-31T17:39:03.135Z,14.50
2022-07-31T17:41:29.772Z,13.60
2022-07-31T17:43:56.441Z,14.13
2022-07-31T17:46:34.768Z,14.07
2022-07-31T17:49:08.316Z,11.83
2022-07-31T17:51:35.126Z,14.10
2022-07-31T17:54:01.853Z,13.80
2022-07-31T17:56:28.683Z,13.10
2022-07-31T17:59:04.265Z,12.37
2022-07-31T18:01:34.434Z,12.17
2022-07-31T18:04:02.533Z,12.77
2022-07-31T18:06:29.274Z,14.50
2022-07-31T18:08:56.575Z,13.23
2022-07-31T18:11:23.274Z,13.00
2022-07-31T18:14:03.529Z,12.70
2022-07-31T18:16:31.575Z,13.43
2022-07-31T18:18:58.219Z,14.00
2022-07-31T18:21:24.881Z,14.50
2022-07-31T18:23:51.493Z,13.30
2022-07-31T18:26:18.229Z,13.77
2022-07-31T18:28:45.166Z,12.40
2022-07-31T18:31:12.813Z,13.47
2022-07-31T18:33:58.299Z,13.00
2022-07-31T18:36:25.000Z,14.03
2022-07-31T18:38:52.133Z,14.80
2022-07-31T18:41:20.509Z,14.40
2022-07-31T18:43:47.353Z,14.60
2022-07-31T18:46:14.039Z,15.60
2022-07-31T18:48:40.745Z,14.40
2022-07-31T18:51:07.491Z,15.63
2022-07-31T18:53:34.262Z,14.00
2022-07-31T18:56:00.898Z,15.70
2022-07-31T18:58:27.630Z,18.20
2022-07-31T19:00:55.590Z,16.00
2022-07-31T19:03:24.366Z,15.70
2022-07-31T19:05:52.945Z,17.23
2022-07-31T19:08:20.815Z,16.67
2022-07-31T19:10:49.339Z,17.50
2022-07-31T19:13:18.625Z,16.73
2022-07-31T19:15:47.140Z,19.67
2022-07-31T19:18:14.163Z,20.97
2022-07-31T19:20:58.903Z,21.50
2022-07-31T19:23:32.312Z,19.27
2022-07-31T19:26:03.442Z,15.73
2022-07-31T19:28:35.066Z,12.77
2022-07-31T19:31:01.825Z,11.07
2022-07-31T19:33:28.711Z,9.97
2022-07-31T19:36:01.365Z,11.23
2022-07-31T19:38:30.097Z,11.80
2022-07-31T19:40:56.926Z,11.27
2022-07-31T19:43:23.652Z,11.37
2022-07-31T19:46:09.740Z,15.40
2022-07-31T19:48:39.646Z,48.07
2022-07-31T19:51:06.508Z,22.97
2022-07-31T19:53:33.186Z,17.70
2022-07-31T19:56:05.199Z,16.77
2022-07-31T19:58:35.881Z,13.30
2022-07-31T20:01:04.005Z,11.57
2022-07-31T20:03:30.835Z,12.70
2022-07-31T20:05:57.780Z,14.27
2022-07-31T20:08:24.443Z,10.87
2022-07-31T20:10:51.471Z,10.57
2022-07-31T20:13:18.833Z,9.30
2022-07-31T20:15:51.473Z,9.90
2022-07-31T20:18:27.698Z,9.93
2022-07-31T20:20:57.045Z,9.20
2022-07-31T20:23:24.517Z,9.83
2022-07-31T20:25:51.203Z,10.47
2022-07-31T20:28:17.849Z,10.37
2022-07-31T20:30:44.496Z,8.83
2022-07-31T20:33:13.347Z,8.53
2022-07-31T20:35:48.027Z,7.10
2022-07-31T20:38:19.596Z,6.83
2022-07-31T20:40:54.120Z,6.30
2022-07-31T20:43:22.911Z,6.50
2022-07-31T20:45:49.633Z,6.40
2022-07-31T20:48:18.072Z,6.30
2022-07-31T20:50:48.114Z,5.67
2022-07-31T20:53:15.529Z,6.20
2022-07-31T20:55:46.715Z,5.67
2022-07-31T20:58:13.679Z,6.40
2022-07-31T21:00:40.567Z,6.23
2022-07-31T21:03:07.287Z,6.27
2022-07-31T21:05:33.925Z,7.37
2022-07-31T21:08:00.605Z,6.67
2022-07-31T21:10:29.667Z,6.77
2022-07-31T21:12:57.297Z,7.23
2022-07-31T21:15:41.699Z,6.10
2022-07-31T21:18:11.844Z,6.60
2022-07-31T21:20:50.891Z,6.80
2022-07-31T21:23:24.605Z,7.50
2022-07-31T21:25:52.789Z,6.60
2022-07-31T21:28:20.031Z,6.90
2022-07-31T21:30:47.541Z,7.83
2022-07-31T21:33:14.652Z,8.50
2022-07-31T21:35:41.857Z,8.07
2022-07-31T21:38:14.637Z,9.53
2022-07-31T21:40:41.916Z,9.07
2022-07-31T21:43:09.130Z,8.70
2022-07-31T21:45:40.598Z,8.93
2022-07-31T21:48:18.097Z,10.37
2022-07-31T21:50:46.471Z,10.90
2022-07-31T21:53:13.895Z,12.07
2022-07-31T21:55:41.181Z,12.23
2022-07-31T21:58:08.960Z,10.60
2022-07-31T22:00:35.972Z,11.77
2022-07-31T22:03:03.946Z,12.20
2022-07-31T22:05:50.343Z,12.23
2022-07-31T22:08:17.097Z,11.87
2022-07-31T22:10:44.596Z,10.90
2022-07-31T22:13:11.706Z,11.90
2022-07-31T22:15:58.438Z,11.60
2022-07-31T22:18:26.854Z,10.40
2022-07-31T22:20:53.986Z,11.37
2022-07-31T22:23:20.933Z,11.70
2022-07-31T22:25:49.039Z,12.10
2022-07-31T22:28:18.716Z,13.07
2022-07-31T22:30:46.129Z,11.47
2022-07-31T22:33:12.979Z,12.00
2022-07-31T22:35:40.664Z,12.53
2022-07-31T22:38:08.456Z,12.00
2022-07-31T22:40:35.298Z,12.30
2022-07-31T22:43:03.416Z,12.87
2022-07-31T22:45:30.446Z,13.10
2022-07-31T22:47:58.091Z,11.37
2022-07-31T22:50:25.347Z,11.53
2022-07-31T22:52:53.122Z,13.63
2022-07-31T22:55:19.819Z,12.13
2022-07-31T22:57:46.659Z,13.03
2022-07-31T23:00:14.726Z,12.00
2022-07-31T23:02:42.871Z,13.60
2022-07-31T23:05:10.471Z,13.00
2022-07-31T23:07:37.762Z,13.90
2022-07-31T23:10:06.712Z,13.63
2022-07-31T23:12:33.739Z,14.03
2022-07-31T23:15:00.418Z,13.23
2022-07-31T23:17:27.078Z,12.77
2022-07-31T23:19:54.718Z,15.10
2022-07-31T23:22:33.250Z,13.43
2022-07-31T23:25:01.964Z,14.37
2022-07-31T23:27:28.654Z,13.80
2022-07-31T23:29:55.468Z,13.07
2022-07-31T23:32:22.082Z,12.80
2022-07-31T23:34:48.728Z,13.13
2022-07-31T23:37:15.378Z,12.87
2022-07-31T23:39:42.087Z,13.00
2022-07-31T23:42:27.803Z,12.50
2022-07-31T23:44:54.492Z,12.50
2022-07-31T23:47:23.988Z,12.10
2022-07-31T23:50:07.731Z,13.50
2022-07-31T23:52:34.473Z,11.70
2022-07-31T23:55:01.134Z,11.73
2022-07-31T23:57:27.781Z,11.53
